Time;durP1;ratioP1;P1;durP2;ratioP2;P2;SDS_P1;SDS_P2;PMS_P1;PMS_P2;Temp;Humidity;BMP_temperature;BMP_pressure;BME280_temperature;BME280_humidity;BME280_pressure;Samples;Min_cycle;Max_cycle;Signal;HPM_P1;HPM_P2
2023/04/26 00:02:26;;;;;;;5.72;1.38;;;5.80;99.90;;;;;;5051625;28;20043;-76
2023/04/26 00:04:57;;;;;;;3.60;1.40;;;5.80;99.90;;;;;;5043331;28;20039;-76
2023/04/26 00:07:25;;;;;;;4.55;1.13;;;6.10;99.90;;;;;;5050036;28;20124;-75
2023/04/26 00:09:54;;;;;;;3.47;1.13;;;5.80;99.90;;;;;;5049724;28;20073;-76
2023/04/26 00:12:22;;;;;;;4.05;1.40;;;5.80;99.90;;;;;;5053803;28;20456;-76
2023/04/26 00:14:48;;;;;;;4.20;1.60;;;5.80;99.90;;;;;;5052370;28;20058;-77
2023/04/26 00:17:14;;;;;;;5.93;1.48;;;5.80;99.90;;;;;;5058113;28;20055;-75
2023/04/26 00:19:40;;;;;;;5.03;1.27;;;5.80;99.90;;;;;;5018563;28;20143;-77
2023/04/26 00:22:09;;;;;;;5.00;1.70;;;5.80;99.90;;;;;;5031103;28;20071;-76
2023/04/26 00:24:35;;;;;;;4.88;1.60;;;5.80;99.90;;;;;;5038793;28;20052;-75
2023/04/26 00:27:07;;;;;;;7.05;1.60;;;5.80;99.90;;;;;;5056976;28;20364;-74
2023/04/26 00:29:36;;;;;;;5.22;1.90;;;5.80;99.90;;;;;;5068183;28;20074;-75
2023/04/26 00:32:02;;;;;;;4.68;1.25;;;5.80;99.90;;;;;;5056130;28;20048;-75
2023/04/26 00:34:36;;;;;;;5.07;1.65;;;5.90;99.90;;;;;;5048434;28;20583;-75
2023/04/26 00:37:04;;;;;;;6.07;1.60;;;6.10;99.90;;;;;;5024189;28;20048;-75
2023/04/26 00:39:30;;;;;;;6.30;1.50;;;5.90;99.90;;;;;;5049865;28;20075;-76
2023/04/26 00:42:00;;;;;;;4.20;1.60;;;5.80;99.90;;;;;;5053466;28;20174;-77
2023/04/26 00:44:26;;;;;;;3.47;1.50;;;5.80;99.90;;;;;;5055145;28;20059;-77
2023/04/26 00:46:52;;;;;;;4.18;1.23;;;5.80;99.90;;;;;;5026882;28;20079;-76
2023/04/26 00:49:21;;;;;;;5.45;1.50;;;5.80;99.90;;;;;;5050104;28;20071;-77
2023/04/26 00:51:48;;;;;;;6.20;1.40;;;5.70;99.90;;;;;;5045467;28;20035;-77
2023/04/26 00:54:14;;;;;;;9.90;2.25;;;5.70;99.90;;;;;;5052665;28;20750;-77
2023/04/26 00:56:42;;;;;;;3.35;1.25;;;5.70;99.90;;;;;;5039571;28;20040;-76
2023/04/26 00:59:08;;;;;;;8.20;1.38;;;5.70;99.90;;;;;;5053227;28;20494;-77
2023/04/26 01:01:34;;;;;;;5.90;1.20;;;5.70;99.90;;;;;;5059638;28;20357;-77
2023/04/26 01:04:07;;;;;;;5.22;1.52;;;5.70;99.90;;;;;;5039605;28;20082;-77
2023/04/26 01:06:37;;;;;;;5.07;1.33;;;5.70;99.90;;;;;;5027913;28;20052;-77
2023/04/26 01:09:08;;;;;;;6.95;1.70;;;5.80;99.90;;;;;;5039568;28;20047;-77
2023/04/26 01:11:35;;;;;;;7.13;1.15;;;5.60;99.90;;;;;;5060976;28;20481;-76
2023/04/26 01:14:02;;;;;;;6.20;1.38;;;5.60;99.90;;;;;;5061662;28;20135;-76
2023/04/26 01:16:35;;;;;;;2.72;1.23;;;5.60;99.90;;;;;;5058203;28;20036;-76
2023/04/26 01:19:11;;;;;;;4.28;1.20;;;5.60;99.90;;;;;;5058511;28;20048;-76
2023/04/26 01:21:38;;;;;;;6.95;1.50;;;5.60;99.90;;;;;;5047594;28;20080;-76
2023/04/26 01:24:05;;;;;;;5.70;1.50;;;5.60;99.90;;;;;;5046532;28;20494;-75
2023/04/26 01:26:31;;;;;;;3.55;1.38;;;5.60;99.90;;;;;;5050690;28;20506;-76
2023/04/26 01:28:57;;;;;;;5.28;1.27;;;5.60;99.90;;;;;;5049947;28;21167;-76
2023/04/26 01:31:24;;;;;;;9.27;1.38;;;5.60;99.90;;;;;;5057895;28;20562;-76
2023/04/26 01:33:49;;;;;;;6.03;1.60;;;5.60;99.90;;;;;;5047097;28;20047;-76
2023/04/26 01:36:15;;;;;;;3.65;1.48;;;5.60;99.90;;;;;;5021130;28;20109;-76
2023/04/26 01:38:47;;;;;;;5.30;1.30;;;5.70;99.90;;;;;;5047725;28;20626;-76
2023/04/26 01:41:14;;;;;;;5.30;1.52;;;5.70;99.90;;;;;;5058549;28;20526;-76
2023/04/26 01:43:52;;;;;;;5.13;1.80;;;5.70;99.90;;;;;;5037498;28;20123;-77
2023/04/26 01:46:18;;;;;;;3.97;1.27;;;5.70;99.90;;;;;;5051044;28;20128;-75
2023/04/26 01:48:44;;;;;;;6.20;1.42;;;5.70;99.90;;;;;;5044551;28;20051;-76
2023/04/26 01:51:10;;;;;;;5.55;1.30;;;5.70;99.90;;;;;;5054100;28;20043;-76
2023/04/26 01:53:36;;;;;;;6.75;1.60;;;5.70;99.90;;;;;;5053297;28;21271;-77
2023/04/26 01:56:05;;;;;;;5.57;2.03;;;5.50;99.90;;;;;;5073645;28;20063;-77
2023/04/26 01:58:31;;;;;;;6.07;1.40;;;5.80;99.90;;;;;;5031146;28;20051;-76
2023/04/26 02:01:05;;;;;;;6.90;1.63;;;5.80;99.90;;;;;;5043495;28;20132;-76
2023/04/26 02:03:37;;;;;;;4.72;1.60;;;5.80;99.90;;;;;;5054206;28;20040;-76
2023/04/26 02:06:12;;;;;;;6.78;1.98;;;5.80;99.90;;;;;;5070347;28;20048;-75
2023/04/26 02:08:38;;;;;;;10.20;1.70;;;5.80;99.90;;;;;;5060527;28;20060;-76
2023/04/26 02:11:03;;;;;;;5.65;1.52;;;5.80;99.90;;;;;;5045505;28;20059;-75
2023/04/26 02:13:30;;;;;;;3.85;1.38;;;5.80;99.90;;;;;;5029243;28;20083;-76
2023/04/26 02:15:56;;;;;;;3.58;1.30;;;5.80;99.90;;;;;;5062567;28;20057;-77
2023/04/26 02:18:22;;;;;;;7.95;1.30;;;5.80;99.90;;;;;;5058808;28;20048;-76
2023/04/26 02:20:48;;;;;;;3.65;1.77;;;5.80;99.90;;;;;;5064037;28;20059;-77
2023/04/26 02:23:20;;;;;;;4.28;1.42;;;5.70;99.90;;;;;;5052896;28;20094;-76
2023/04/26 02:25:48;;;;;;;6.00;1.52;;;5.70;99.90;;;;;;5023151;28;20052;-77
2023/04/26 02:28:15;;;;;;;7.93;1.30;;;5.70;99.90;;;;;;5033051;28;20044;-76
2023/04/26 02:30:43;;;;;;;2.88;1.27;;;5.70;99.90;;;;;;5057229;28;20048;-75
2023/04/26 02:33:09;;;;;;;6.05;1.50;;;5.60;99.90;;;;;;5055829;28;20159;-77
2023/04/26 02:35:36;;;;;;;4.80;1.50;;;5.60;99.90;;;;;;5057999;28;20048;-75
2023/04/26 02:38:02;;;;;;;4.07;1.08;;;5.60;99.90;;;;;;5055989;28;20048;-76
2023/04/26 02:40:29;;;;;;;5.40;1.20;;;5.50;99.90;;;;;;5021346;28;20040;-76
2023/04/26 02:42:56;;;;;;;4.28;1.27;;;5.50;99.90;;;;;;5025383;28;20475;-76
2023/04/26 02:45:22;;;;;;;4.80;1.00;;;5.50;99.90;;;;;;5042271;28;20569;-76
2023/04/26 02:47:49;;;;;;;6.05;1.60;;;5.50;99.90;;;;;;5029318;28;20453;-77
2023/04/26 02:50:17;;;;;;;4.70;1.40;;;5.50;99.90;;;;;;5039224;28;20127;-75
2023/04/26 02:52:44;;;;;;;3.38;1.45;;;5.50;99.90;;;;;;5043896;28;20044;-75
2023/04/26 02:55:10;;;;;;;8.35;1.38;;;5.40;99.90;;;;;;5066802;28;20374;-76
2023/04/26 02:57:38;;;;;;;5.60;1.40;;;5.50;99.90;;;;;;5055924;28;20056;-76
2023/04/26 03:00:06;;;;;;;8.43;1.83;;;5.50;99.90;;;;;;5055905;28;20093;-75
2023/04/26 03:02:33;;;;;;;5.00;1.35;;;5.60;99.90;;;;;;5054182;28;20146;-77
2023/04/26 03:04:58;;;;;;;4.88;1.45;;;5.50;99.90;;;;;;5042916;28;20127;-76
2023/04/26 03:07:25;;;;;;;7.35;1.55;;;5.50;99.90;;;;;;5027733;28;20048;-76
2023/04/26 03:09:59;;;;;;;3.22;1.45;;;5.40;99.90;;;;;;5052393;28;20232;-76
2023/04/26 03:12:25;;;;;;;4.20;1.35;;;5.40;99.90;;;;;;5045596;28;20039;-75
2023/04/26 03:14:53;;;;;;;6.63;1.65;;;5.30;99.90;;;;;;5059629;28;20044;-75
2023/04/26 03:17:20;;;;;;;4.40;1.50;;;5.30;99.90;;;;;;5044617;28;20059;-75
2023/04/26 03:19:45;;;;;;;4.75;1.33;;;5.30;99.90;;;;;;5053547;28;20337;-76
2023/04/26 03:22:17;;;;;;;4.38;1.50;;;5.20;99.90;;;;;;5059097;28;20043;-75
2023/04/26 03:24:43;;;;;;;2.63;1.33;;;5.20;99.90;;;;;;5047478;28;20078;-75
2023/04/26 03:27:09;;;;;;;3.03;1.50;;;5.20;99.90;;;;;;5044947;28;20490;-75
2023/04/26 03:29:36;;;;;;;5.45;1.50;;;5.20;99.90;;;;;;5054624;28;20100;-77
2023/04/26 03:32:11;;;;;;;3.45;1.40;;;5.20;99.90;;;;;;5046076;28;20035;-75
2023/04/26 03:34:42;;;;;;;3.78;1.55;;;5.10;99.90;;;;;;5042402;28;20046;-76
2023/04/26 03:37:09;;;;;;;5.65;1.50;;;5.10;99.90;;;;;;5053839;28;20039;-76
2023/04/26 03:39:35;;;;;;;4.60;1.80;;;5.10;99.90;;;;;;5042409;28;20119;-76
2023/04/26 03:42:02;;;;;;;4.97;1.60;;;5.10;99.90;;;;;;5071112;28;20048;-75
2023/04/26 03:44:28;;;;;;;5.15;1.77;;;5.00;99.90;;;;;;5023058;28;20169;-76
2023/04/26 03:46:54;;;;;;;3.38;1.38;;;5.00;99.90;;;;;;5043823;28;20040;-76
2023/04/26 03:49:20;;;;;;;3.55;1.80;;;5.00;99.90;;;;;;5039728;28;20052;-75
2023/04/26 03:51:46;;;;;;;4.43;1.73;;;5.00;99.90;;;;;;5040267;28;20054;-74
2023/04/26 03:54:12;;;;;;;3.33;1.40;;;4.90;99.90;;;;;;5049361;28;20143;-75
2023/04/26 03:56:38;;;;;;;6.97;1.77;;;4.90;99.90;;;;;;5062700;28;20058;-76
2023/04/26 03:59:04;;;;;;;4.22;1.55;;;5.00;99.90;;;;;;5053014;28;22616;-77
2023/04/26 04:01:36;;;;;;;5.47;1.38;;;4.90;99.90;;;;;;5052989;28;21205;-75
2023/04/26 04:04:05;;;;;;;3.90;1.38;;;4.80;99.90;;;;;;5051872;28;20090;-76
2023/04/26 04:06:33;;;;;;;4.05;1.35;;;4.80;99.90;;;;;;5028413;28;20078;-75
2023/04/26 04:08:59;;;;;;;4.43;1.42;;;4.80;99.90;;;;;;5055444;28;20374;-76
2023/04/26 04:11:43;;;;;;;7.90;1.65;;;4.80;99.90;;;;;;5030356;28;20052;-76
2023/04/26 04:14:09;;;;;;;5.78;1.77;;;4.80;99.90;;;;;;5038243;28;20296;-77
2023/04/26 04:16:35;;;;;;;8.00;1.50;;;4.90;99.90;;;;;;5058346;28;20078;-76
2023/04/26 04:19:02;;;;;;;4.82;1.50;;;4.80;99.90;;;;;;5052333;28;20465;-76
2023/04/26 04:21:28;;;;;;;6.72;1.40;;;4.90;99.90;;;;;;5060818;28;20053;-76
2023/04/26 04:23:54;;;;;;;4.43;1.17;;;4.90;99.90;;;;;;5056257;28;20056;-76
2023/04/26 04:26:20;;;;;;;6.18;1.80;;;4.90;99.90;;;;;;5033301;28;20120;-76
2023/04/26 04:28:46;;;;;;;4.85;1.73;;;5.00;99.90;;;;;;5022520;28;20407;-77
2023/04/26 04:31:12;;;;;;;3.67;1.55;;;5.00;99.90;;;;;;5051599;28;20058;-75
2023/04/26 04:33:52;;;;;;;5.90;1.35;;;5.00;99.90;;;;;;5071283;28;20042;-75
2023/04/26 04:36:18;;;;;;;8.13;1.80;;;5.00;99.90;;;;;;5053073;28;20044;-76
2023/04/26 04:38:44;;;;;;;7.40;1.40;;;5.00;99.90;;;;;;5052821;28;20500;-76
2023/04/26 04:41:11;;;;;;;5.05;1.30;;;5.00;99.90;;;;;;5033278;28;20059;-76
2023/04/26 04:43:37;;;;;;;7.68;1.45;;;5.00;99.90;;;;;;5035718;28;20043;-74
2023/04/26 04:46:03;;;;;;;6.00;1.75;;;5.10;99.90;;;;;;5042054;28;20048;-76
2023/04/26 04:48:30;;;;;;;3.78;1.30;;;5.10;99.90;;;;;;5053312;28;20894;-77
2023/04/26 04:50:57;;;;;;;3.95;1.60;;;5.20;99.90;;;;;;5041054;28;20078;-74
2023/04/26 04:53:22;;;;;;;6.45;1.60;;;5.20;99.90;;;;;;5038281;28;20079;-76
2023/04/26 04:55:55;;;;;;;5.57;1.73;;;5.30;99.90;;;;;;5053622;28;20050;-76
2023/04/26 04:58:21;;;;;;;7.22;1.95;;;5.30;99.90;;;;;;5044519;28;20135;-75
2023/04/26 05:00:47;;;;;;;2.78;1.42;;;5.30;99.90;;;;;;5052523;28;20474;-75
2023/04/26 05:03:14;;;;;;;3.58;1.50;;;5.20;99.90;;;;;;5071403;28;20078;-76
2023/04/26 05:05:42;;;;;;;4.05;1.50;;;5.20;99.90;;;;;;5058608;28;20063;-75
2023/04/26 05:08:08;;;;;;;2.97;1.40;;;5.10;99.90;;;;;;5036341;28;20074;-75
2023/04/26 05:10:34;;;;;;;5.90;1.40;;;5.10;99.90;;;;;;5058354;28;20036;-76
2023/04/26 05:13:01;;;;;;;3.80;1.50;;;5.10;99.90;;;;;;5040271;28;20048;-74
2023/04/26 05:15:27;;;;;;;4.45;1.63;;;5.10;99.90;;;;;;5052820;28;20049;-76
2023/04/26 05:17:54;;;;;;;3.38;1.35;;;5.20;99.90;;;;;;5039488;28;20104;-76
2023/04/26 05:20:20;;;;;;;4.85;1.70;;;5.20;99.90;;;;;;5058833;28;20047;-76
2023/04/26 05:22:46;;;;;;;3.83;1.30;;;5.20;99.90;;;;;;5048565;28;20751;-77
2023/04/26 05:25:13;;;;;;;3.53;1.60;;;5.20;99.90;;;;;;5059419;28;20036;-76
2023/04/26 05:27:40;;;;;;;5.68;1.80;;;5.30;99.90;;;;;;5061497;28;20040;-75
2023/04/26 05:30:07;;;;;;;5.88;1.77;;;5.40;99.90;;;;;;5066718;28;20163;-75
2023/04/26 05:32:33;;;;;;;6.35;1.63;;;5.40;99.90;;;;;;5044045;28;20048;-76
2023/04/26 05:35:02;;;;;;;4.15;1.52;;;5.50;99.90;;;;;;5082332;28;20082;-75
2023/04/26 05:37:28;;;;;;;6.03;1.67;;;5.50;99.90;;;;;;5074327;28;20043;-75
2023/04/26 05:39:54;;;;;;;5.35;1.58;;;5.60;99.90;;;;;;5043568;28;20048;-74
2023/04/26 05:42:22;;;;;;;5.88;1.38;;;5.70;99.90;;;;;;5058498;28;20253;-76
2023/04/26 05:44:48;;;;;;;4.22;1.40;;;5.80;99.90;;;;;;5049698;28;20048;-76
2023/04/26 05:47:14;;;;;;;6.75;1.65;;;5.90;99.90;;;;;;5038114;28;20555;-77
2023/04/26 05:49:43;;;;;;;4.65;1.83;;;5.90;99.90;;;;;;5038459;28;20049;-77
2023/04/26 05:52:08;;;;;;;6.90;1.50;;;6.00;99.90;;;;;;5031147;28;20044;-76
2023/04/26 05:54:34;;;;;;;3.83;1.55;;;6.10;99.90;;;;;;5056636;28;20376;-74
2023/04/26 05:57:00;;;;;;;7.35;1.90;;;6.10;99.90;;;;;;5048033;28;20588;-77
2023/04/26 05:59:30;;;;;;;6.22;2.63;;;6.20;99.90;;;;;;5040921;28;20077;-75
2023/04/26 06:01:56;;;;;;;5.00;1.88;;;6.60;99.90;;;;;;5042468;28;20056;-76
2023/04/26 06:04:22;;;;;;;5.55;1.73;;;6.20;99.90;;;;;;5061964;28;20052;-76
2023/04/26 06:06:47;;;;;;;5.68;1.90;;;6.20;99.90;;;;;;5042670;28;20416;-75
2023/04/26 06:09:15;;;;;;;3.75;1.67;;;6.20;99.90;;;;;;5045725;28;20031;-76
2023/04/26 06:11:40;;;;;;;6.97;1.80;;;6.20;99.90;;;;;;5057159;28;20359;-76
2023/04/26 06:14:06;;;;;;;6.03;1.70;;;6.20;99.90;;;;;;5035734;28;20144;-77
2023/04/26 06:16:33;;;;;;;6.28;1.80;;;6.10;99.90;;;;;;5058634;28;20044;-75
2023/04/26 06:18:59;;;;;;;4.95;1.77;;;6.10;99.90;;;;;;5061365;28;20044;-76
2023/04/26 06:21:26;;;;;;;4.75;1.83;;;6.20;99.90;;;;;;5063097;28;20372;-75
2023/04/26 06:23:54;;;;;;;11.93;2.15;;;6.20;99.90;;;;;;5069573;28;20539;-76
2023/04/26 06:26:20;;;;;;;7.70;2.13;;;6.20;99.90;;;;;;5055225;28;20040;-77
2023/04/26 06:28:46;;;;;;;6.70;1.75;;;6.30;99.90;;;;;;5067386;28;20051;-75
2023/04/26 06:31:14;;;;;;;4.68;1.45;;;6.40;99.90;;;;;;5048227;28;20112;-76
2023/04/26 06:33:47;;;;;;;7.78;1.80;;;6.40;99.90;;;;;;5067143;28;20062;-76
2023/04/26 06:36:13;;;;;;;5.03;1.52;;;6.50;99.90;;;;;;5053426;28;20158;-76
2023/04/26 06:38:40;;;;;;;8.10;1.65;;;6.60;99.90;;;;;;5051042;28;20058;-76
2023/04/26 06:41:07;;;;;;;3.85;1.70;;;6.80;99.90;;;;;;5083014;28;20573;-76
2023/04/26 06:43:33;;;;;;;9.52;1.65;;;7.00;99.90;;;;;;5056759;28;20054;-76
2023/04/26 06:45:59;;;;;;;7.85;1.98;;;7.10;99.90;;;;;;5069174;28;20457;-76
2023/04/26 06:48:24;;;;;;;7.20;2.53;;;7.30;99.90;;;;;;5062254;28;20570;-75
2023/04/26 06:50:50;;;;;;;13.15;4.35;;;7.50;99.90;;;;;;5051634;28;20036;-75
2023/04/26 06:53:16;;;;;;;14.60;4.30;;;7.60;99.90;;;;;;5054921;28;20093;-76
2023/04/26 06:55:42;;;;;;;9.63;3.08;;;7.80;99.90;;;;;;5054142;28;20057;-76
2023/04/26 06:58:08;;;;;;;15.52;4.25;;;7.90;99.90;;;;;;5062644;28;20269;-76
2023/04/26 07:00:43;;;;;;;10.93;3.00;;;7.90;99.90;;;;;;5083030;28;20486;-76
2023/04/26 07:03:14;;;;;;;11.77;3.35;;;8.00;99.90;;;;;;5032750;28;20289;-76
2023/04/26 07:05:40;;;;;;;8.77;2.08;;;8.00;99.90;;;;;;5039424;28;20055;-76
2023/04/26 07:08:06;;;;;;;6.28;1.48;;;7.90;99.90;;;;;;5063243;28;20398;-76
2023/04/26 07:10:35;;;;;;;4.75;1.20;;;7.90;99.90;;;;;;5058006;28;20221;-76
2023/04/26 07:13:01;;;;;;;5.50;1.58;;;7.90;99.90;;;;;;5067054;28;20146;-75
2023/04/26 07:15:35;;;;;;;4.20;1.40;;;7.90;99.90;;;;;;5065075;28;20048;-77
2023/04/26 07:18:01;;;;;;;6.03;1.48;;;7.90;99.90;;;;;;5063598;28;20123;-76
2023/04/26 07:20:28;;;;;;;5.45;1.50;;;8.30;99.90;;;;;;5046240;28;20047;-76
2023/04/26 07:22:54;;;;;;;2.70;1.40;;;8.00;99.90;;;;;;5051690;28;20050;-76
2023/04/26 07:25:21;;;;;;;9.38;1.65;;;8.00;99.90;;;;;;5060476;28;20040;-76
2023/04/26 07:27:47;;;;;;;5.18;1.60;;;8.10;99.90;;;;;;5078519;28;20067;-76
2023/04/26 07:30:15;;;;;;;4.00;1.02;;;8.10;99.90;;;;;;5062866;28;20055;-76
2023/04/26 07:32:45;;;;;;;6.07;1.40;;;8.10;99.90;;;;;;5062840;28;20434;-75
2023/04/26 07:35:14;;;;;;;4.15;1.42;;;8.20;99.90;;;;;;5069932;28;20951;-76
2023/04/26 07:37:42;;;;;;;5.57;1.63;;;8.20;99.90;;;;;;5079595;28;20070;-74
2023/04/26 07:40:09;;;;;;;7.13;1.58;;;8.20;99.90;;;;;;5051729;28;20066;-74
2023/04/26 07:42:35;;;;;;;4.43;1.20;;;8.30;99.90;;;;;;5046588;28;20501;-76
2023/04/26 07:45:02;;;;;;;3.83;1.50;;;8.30;99.90;;;;;;5053152;28;20040;-75
2023/04/26 07:47:30;;;;;;;4.45;1.50;;;8.40;99.90;;;;;;5039176;28;20067;-75
2023/04/26 07:49:57;;;;;;;5.53;1.50;;;8.30;99.90;;;;;;5078610;28;20160;-76
2023/04/26 07:52:25;;;;;;;4.75;1.58;;;8.30;99.90;;;;;;5037812;28;20048;-78
2023/04/26 07:54:57;;;;;;;6.88;2.30;;;8.40;99.90;;;;;;5082726;28;20048;-76
2023/04/26 07:57:23;;;;;;;3.25;1.35;;;8.40;99.90;;;;;;5060775;28;20082;-76
2023/04/26 07:59:49;;;;;;;7.15;1.35;;;8.50;99.90;;;;;;5072007;28;20048;-75
2023/04/26 08:02:15;;;;;;;6.60;1.67;;;8.70;99.90;;;;;;5073239;28;20062;-76
2023/04/26 08:04:54;;;;;;;5.90;1.52;;;8.80;99.90;;;;;;5063953;28;20117;-76
2023/04/26 08:07:25;;;;;;;2.95;1.63;;;9.00;99.90;;;;;;5056284;28;20056;-76
2023/04/26 08:09:54;;;;;;;5.30;1.77;;;9.10;99.90;;;;;;5035022;28;20044;-76
2023/04/26 08:12:20;;;;;;;5.35;1.63;;;9.30;99.90;;;;;;5037210;28;20058;-76
2023/04/26 08:14:45;;;;;;;6.03;1.50;;;9.50;99.90;;;;;;5064833;28;20059;-75
2023/04/26 08:17:11;;;;;;;5.35;1.50;;;9.60;99.90;;;;;;5035347;28;20135;-77
2023/04/26 08:19:37;;;;;;;6.28;1.75;;;9.80;99.90;;;;;;5037503;28;20055;-76
2023/04/26 08:22:09;;;;;;;3.50;1.48;;;10.00;99.90;;;;;;5067723;28;20101;-76
2023/04/26 08:24:34;;;;;;;6.78;1.80;;;10.20;99.90;;;;;;5049477;28;20044;-76
2023/04/26 08:27:00;;;;;;;5.82;1.55;;;10.50;99.90;;;;;;5064045;28;20050;-76
2023/04/26 08:29:32;;;;;;;5.68;1.60;;;10.80;99.90;;;;;;5049803;28;20672;-77
2023/04/26 08:32:01;;;;;;;5.13;1.80;;;11.10;99.90;;;;;;5056065;28;20048;-77
2023/04/26 08:34:30;;;;;;;5.45;1.70;;;11.30;99.90;;;;;;5065634;28;20100;-77
2023/04/26 08:36:56;;;;;;;5.15;1.30;;;11.40;99.90;;;;;;5065243;28;20400;-77
2023/04/26 08:39:24;;;;;;;4.47;1.60;;;11.40;99.90;;;;;;5056045;28;20383;-76
2023/04/26 08:41:56;;;;;;;8.50;1.77;;;10.40;99.90;;;;;;5041265;28;20465;-76
2023/04/26 08:44:23;;;;;;;4.82;1.35;;;11.50;99.90;;;;;;5073554;28;20048;-77
2023/04/26 08:47:30;;;;;;;4.15;1.50;;;12.60;99.90;;;;;;5056585;28;20132;-77
2023/04/26 08:50:02;;;;;;;3.33;1.48;;;11.50;99.90;;;;;;5063710;28;20047;-76
2023/04/26 08:52:30;;;;;;;5.38;1.50;;;11.60;99.90;;;;;;5059485;28;20078;-76
2023/04/26 08:54:57;;;;;;;4.80;1.38;;;10.50;99.90;;;;;;5069529;28;20054;-76
2023/04/26 08:57:25;;;;;;;6.57;1.55;;;11.50;99.90;;;;;;5075516;28;20093;-77
2023/04/26 08:59:52;;;;;;;7.45;2.00;;;11.40;99.90;;;;;;5062460;28;20043;-77
2023/04/26 09:02:21;;;;;;;5.07;1.60;;;11.30;99.90;;;;;;5078042;28;20048;-77
2023/04/26 09:04:48;;;;;;;4.65;1.90;;;11.20;99.90;;;;;;5068255;28;20058;-76
2023/04/26 09:07:24;;;;;;;6.45;1.60;;;11.10;99.90;;;;;;5064847;28;20059;-78
2023/04/26 09:09:51;;;;;;;7.03;1.70;;;11.00;99.90;;;;;;5068057;28;20330;-74
2023/04/26 09:12:21;;;;;;;6.13;1.90;;;10.90;99.90;;;;;;5046302;28;20040;-76
2023/04/26 09:14:47;;;;;;;6.10;1.58;;;10.90;99.90;;;;;;5083611;28;20048;-77
2023/04/26 09:17:50;;;;;;;4.25;1.52;;;10.80;99.90;;;;;;5061806;28;20043;-78
2023/04/26 09:20:30;;;;;;;6.65;1.70;;;10.80;99.90;;;;;;5077356;28;20167;-75
2023/04/26 09:23:08;;;;;;;4.78;1.58;;;10.50;99.90;;;;;;5082050;28;20053;-78
2023/04/26 09:25:35;;;;;;;4.32;1.60;;;10.40;99.90;;;;;;5073777;28;20043;-77
2023/04/26 09:28:04;;;;;;;3.67;1.60;;;10.40;99.90;;;;;;5079427;28;20043;-75
2023/04/26 09:30:41;;;;;;;5.93;1.77;;;10.30;99.90;;;;;;5058595;28;20394;-77
2023/04/26 09:33:08;;;;;;;6.03;1.63;;;10.20;99.90;;;;;;5059595;28;20050;-77
2023/04/26 09:35:38;;;;;;;7.80;1.80;;;10.20;99.90;;;;;;5083397;28;20406;-78
2023/04/26 09:38:08;;;;;;;6.10;1.63;;;10.10;99.90;;;;;;5063737;28;20044;-76
2023/04/26 09:40:37;;;;;;;5.88;1.75;;;10.10;99.90;;;;;;5078079;28;20059;-77
2023/04/26 09:43:05;;;;;;;5.60;1.83;;;11.10;99.90;;;;;;5065496;28;20073;-77
2023/04/26 09:45:42;;;;;;;9.18;2.05;;;9.80;99.90;;;;;;5089117;28;20593;-77
2023/04/26 09:48:12;;;;;;;;;;;9.70;99.90;;;;;;5049136;28;20489;-76
2023/04/26 09:50:38;;;;;;;8.15;2.08;;;9.50;99.90;;;;;;5063121;28;19928;-77
2023/04/26 09:53:04;;;;;;;6.20;1.95;;;9.40;99.90;;;;;;5071020;28;20051;-77
2023/04/26 09:55:30;;;;;;;6.80;2.03;;;9.50;99.90;;;;;;5067358;28;20062;-76
2023/04/26 09:57:59;;;;;;;7.57;2.17;;;9.40;99.90;;;;;;5083782;28;20055;-77
2023/04/26 10:00:26;;;;;;;5.32;2.08;;;9.40;99.90;;;;;;5065667;28;20052;-76
2023/04/26 10:02:54;;;;;;;11.38;2.22;;;9.50;99.90;;;;;;5071218;28;20043;-77
2023/04/26 10:05:21;;;;;;;5.88;1.90;;;9.60;99.90;;;;;;5067409;28;20040;-75
2023/04/26 10:07:48;;;;;;;6.85;1.77;;;10.10;99.90;;;;;;5065150;28;20040;-77
2023/04/26 10:10:15;;;;;;;3.63;1.80;;;10.50;99.90;;;;;;5063597;28;21068;-76
2023/04/26 10:12:43;;;;;;;6.25;1.70;;;10.80;99.90;;;;;;5074020;28;20074;-76
2023/04/26 10:15:10;;;;;;;3.92;1.75;;;10.90;99.90;;;;;;5051610;28;20056;-75
2023/04/26 10:17:38;;;;;;;4.32;1.40;;;11.20;99.90;;;;;;5053616;28;20489;-76
2023/04/26 10:20:10;;;;;;;4.65;1.45;;;12.00;99.90;;;;;;5052109;28;20130;-76
2023/04/26 10:23:00;;;;;;;6.93;1.40;;;12.20;99.90;;;;;;5048289;28;20052;-75
2023/04/26 10:25:38;;;;;;;4.13;1.45;;;12.60;99.90;;;;;;5063328;28;20044;-76
2023/04/26 10:28:06;;;;;;;3.40;1.70;;;12.80;99.90;;;;;;5061455;28;20097;-77
2023/04/26 10:30:52;;;;;;;5.72;1.40;;;12.90;99.90;;;;;;5058290;28;20048;-77
2023/04/26 10:33:19;;;;;;;3.22;1.63;;;12.80;99.90;;;;;;5063392;28;20044;-78
2023/04/26 10:36:02;;;;;;;7.28;2.17;;;13.00;99.90;;;;;;5065742;28;23339;-78
2023/04/26 10:38:29;;;;;;;5.15;1.63;;;12.90;99.90;;;;;;5073883;28;20055;-77
2023/04/26 10:40:55;;;;;;;6.35;1.80;;;12.80;99.90;;;;;;5066535;28;20233;-78
2023/04/26 10:43:31;;;;;;;4.22;1.75;;;12.70;99.90;;;;;;5043931;28;20048;-77
2023/04/26 10:46:18;;;;;;;;;;;12.50;99.90;;;;;;5036239;28;20047;-77
2023/04/26 10:48:51;;;;;;;2.00;1.15;;;12.30;99.90;;;;;;5061341;28;19928;-76
2023/04/26 10:51:35;;;;;;;6.22;1.60;;;12.20;99.90;;;;;;5053237;28;20051;-77
2023/04/26 10:54:03;;;;;;;5.50;1.70;;;11.90;99.90;;;;;;5073862;28;20060;-77
2023/04/26 10:56:29;;;;;;;4.53;1.55;;;11.80;99.90;;;;;;5080141;28;20060;-77
2023/04/26 10:59:13;;;;;;;4.30;2.00;;;11.70;99.90;;;;;;5070216;28;20051;-76
2023/04/26 11:01:46;;;;;;;4.70;1.52;;;11.90;99.90;;;;;;5067764;28;20071;-78
2023/04/26 11:04:16;;;;;;;6.38;1.60;;;12.00;99.90;;;;;;5086849;28;20410;-77
2023/04/26 11:06:58;;;;;;;3.03;1.40;;;12.10;99.90;;;;;;5058733;28;20044;-77
2023/04/26 11:09:35;;;;;;;6.78;1.42;;;12.10;99.90;;;;;;5057447;28;20090;-77
2023/04/26 11:12:14;;;;;;;6.22;1.67;;;12.20;99.90;;;;;;5073497;28;20424;-77
2023/04/26 11:14:42;;;;;;;6.53;1.50;;;12.30;99.90;;;;;;5050166;28;20039;-79
2023/04/26 11:17:13;;;;;;;3.60;1.50;;;12.40;99.90;;;;;;5075665;28;20480;-76
2023/04/26 11:19:45;;;;;;;4.95;1.55;;;12.60;99.90;;;;;;5041717;28;20074;-74
2023/04/26 11:22:11;;;;;;;4.80;1.60;;;13.10;99.90;;;;;;5066638;28;20741;-77
2023/04/26 11:24:39;;;;;;;5.38;1.55;;;13.50;99.90;;;;;;5056408;28;20043;-78
2023/04/26 11:27:09;;;;;;;6.88;1.60;;;13.30;99.90;;;;;;5070091;28;20132;-77
2023/04/26 11:29:35;;;;;;;4.15;1.42;;;12.60;99.90;;;;;;5064505;28;20043;-77
2023/04/26 11:32:01;;;;;;;6.47;1.55;;;13.20;99.90;;;;;;5070864;28;20077;-77
2023/04/26 11:34:40;;;;;;;8.48;2.13;;;13.10;99.90;;;;;;5063110;28;20043;-78
2023/04/26 11:37:06;;;;;;;4.78;1.50;;;13.80;99.90;;;;;;5061520;28;20048;-77
2023/04/26 11:39:36;;;;;;;2.78;1.38;;;14.20;99.90;;;;;;5081056;28;20055;-77
2023/04/26 11:42:25;;;;;;;3.97;1.58;;;14.50;99.90;;;;;;5062557;28;20452;-77
2023/04/26 11:45:00;;;;;;;4.40;1.45;;;14.60;98.50;;;;;;5033664;28;20208;-77
2023/04/26 11:47:29;;;;;;;6.35;1.48;;;14.80;99.10;;;;;;5018017;28;20063;-78
2023/04/26 11:49:55;;;;;;;3.85;1.40;;;14.90;98.60;;;;;;5060033;28;20136;-78
2023/04/26 11:52:23;;;;;;;3.85;1.30;;;14.90;98.00;;;;;;5050455;28;20043;-77
2023/04/26 11:55:02;;;;;;;5.03;1.33;;;14.70;97.80;;;;;;5066951;28;20098;-78
2023/04/26 11:57:31;;;;;;;8.40;1.63;;;14.50;97.70;;;;;;5048534;28;20068;-77
2023/04/26 12:00:17;;;;;;;4.90;1.50;;;14.30;97.50;;;;;;5052165;28;20052;-77
2023/04/26 12:02:47;;;;;;;6.15;1.58;;;14.10;97.70;;;;;;5050018;28;20511;-77
2023/04/26 12:05:24;;;;;;;3.75;1.35;;;13.90;98.40;;;;;;5061594;28;20041;-78
2023/04/26 12:07:55;;;;;;;5.90;1.40;;;13.80;98.70;;;;;;5062530;28;20091;-78
2023/04/26 12:10:32;;;;;;;4.35;1.30;;;13.50;98.80;;;;;;5044665;28;20102;-77
2023/04/26 12:13:04;;;;;;;4.35;1.48;;;13.40;98.90;;;;;;5051156;28;20047;-77
2023/04/26 12:15:35;;;;;;;5.18;1.35;;;13.30;98.90;;;;;;5063340;28;20072;-77
2023/04/26 12:18:11;;;;;;;4.85;1.58;;;13.20;98.60;;;;;;5064728;28;20146;-76
2023/04/26 12:20:40;;;;;;;3.72;1.30;;;13.20;98.60;;;;;;5062511;28;20040;-77
2023/04/26 12:23:16;;;;;;;4.18;1.42;;;13.30;98.30;;;;;;5061022;28;20449;-77
2023/04/26 12:25:55;;;;;;;6.25;1.73;;;13.40;98.30;;;;;;5062828;28;20511;-76
2023/04/26 12:28:23;;;;;;;2.88;1.27;;;13.50;98.30;;;;;;5032565;28;20047;-77
2023/04/26 12:30:51;;;;;;;3.47;1.50;;;13.70;98.20;;;;;;5038120;28;20145;-77
2023/04/26 12:33:21;;;;;;;3.05;1.30;;;13.70;98.20;;;;;;5046706;28;20047;-78
2023/04/26 12:35:49;;;;;;;3.30;1.27;;;13.90;98.10;;;;;;5043763;28;20048;-77
2023/04/26 12:38:15;;;;;;;2.25;1.00;;;13.90;97.70;;;;;;5048908;28;20444;-78
2023/04/26 12:40:42;;;;;;;3.22;1.20;;;14.00;97.10;;;;;;5049507;28;20051;-78
2023/04/26 12:43:15;;;;;;;2.35;1.33;;;13.90;96.50;;;;;;5055559;28;20044;-77
2023/04/26 12:45:41;;;;;;;3.25;1.38;;;13.70;96.70;;;;;;5056834;28;20114;-78
2023/04/26 12:48:08;;;;;;;4.00;1.20;;;14.00;96.80;;;;;;5047016;28;20516;-78
2023/04/26 12:50:33;;;;;;;5.82;1.35;;;14.50;96.60;;;;;;5058042;28;20739;-78
2023/04/26 12:52:59;;;;;;;5.10;1.63;;;14.80;95.80;;;;;;5058809;28;20051;-77
2023/04/26 12:55:26;;;;;;;3.95;1.20;;;14.60;94.80;;;;;;5032838;28;20529;-77
2023/04/26 12:57:52;;;;;;;3.88;1.38;;;14.50;94.70;;;;;;5033200;28;20069;-77
2023/04/26 13:00:20;;;;;;;4.47;1.48;;;14.80;95.00;;;;;;5048769;28;20048;-78
2023/04/26 13:02:49;;;;;;;3.53;1.30;;;14.30;95.20;;;;;;4993986;28;20048;-78